createdAt,value
2019-05-11T00:01:11.086Z,21.17
2019-05-11T00:03:39.546Z,19.50
2019-05-11T00:06:08.151Z,21.83
2019-05-11T00:08:36.627Z,21.57
2019-05-11T00:11:05.141Z,24.50
2019-05-11T00:13:33.583Z,26.80
2019-05-11T00:16:02.191Z,21.63
2019-05-11T00:18:30.710Z,25.30
2019-05-11T00:20:59.196Z,23.03
2019-05-11T00:23:27.661Z,25.70
2019-05-11T00:25:56.153Z,27.60
2019-05-11T00:28:24.671Z,18.57
2019-05-11T00:30:53.179Z,34.33
2019-05-11T00:33:21.622Z,29.33
2019-05-11T00:35:50.077Z,26.40
2019-05-11T00:38:18.615Z,29.50
2019-05-11T00:40:47.198Z,30.13
2019-05-11T00:43:15.728Z,30.67
2019-05-11T00:45:44.193Z,20.90
2019-05-11T00:48:12.652Z,32.67
2019-05-11T00:50:41.304Z,30.70
2019-05-11T00:53:09.938Z,29.40
2019-05-11T00:55:38.384Z,33.40
2019-05-11T00:58:07.604Z,27.70
2019-05-11T01:00:36.146Z,29.80
2019-05-11T01:03:05.166Z,25.13
2019-05-11T01:05:33.700Z,30.57
2019-05-11T01:08:02.161Z,28.23
2019-05-11T01:10:41.658Z,34.83
2019-05-11T01:13:00.789Z,37.17
2019-05-11T01:15:29.269Z,26.63
2019-05-11T01:17:57.733Z,34.83
2019-05-11T01:20:26.181Z,32.03
2019-05-11T01:22:54.660Z,26.73
2019-05-11T01:25:23.146Z,31.43
2019-05-11T01:27:51.624Z,26.33
2019-05-11T01:30:20.216Z,30.10
2019-05-11T01:32:48.704Z,39.60
2019-05-11T01:35:17.360Z,30.97
2019-05-11T01:37:45.852Z,40.80
2019-05-11T01:40:14.874Z,39.87
2019-05-11T01:42:43.396Z,40.67
2019-05-11T01:45:12.123Z,38.90
2019-05-11T01:47:40.648Z,33.43
2019-05-11T01:50:09.730Z,29.40
2019-05-11T01:52:38.204Z,37.10
2019-05-11T01:55:07.350Z,25.67
2019-05-11T01:57:35.875Z,31.60
2019-05-11T02:00:09.619Z,31.57
2019-05-11T02:02:38.092Z,30.10
2019-05-11T02:05:23.934Z,26.83
2019-05-11T02:07:52.490Z,29.13
2019-05-11T02:10:20.998Z,25.47
2019-05-11T02:12:49.454Z,40.33
2019-05-11T02:15:17.910Z,38.47
2019-05-11T02:17:46.373Z,34.17
2019-05-11T02:20:15.072Z,38.27
2019-05-11T02:22:43.534Z,32.03
2019-05-11T02:25:12.939Z,38.50
2019-05-11T02:27:41.399Z,32.10
2019-05-11T02:30:10.224Z,33.97
2019-05-11T02:32:38.733Z,32.57
2019-05-11T02:35:07.826Z,28.13
2019-05-11T02:37:36.334Z,26.40
2019-05-11T02:40:07.879Z,32.73
2019-05-11T02:42:36.542Z,23.97
2019-05-11T02:45:08.601Z,24.63
2019-05-11T02:47:37.165Z,32.03
2019-05-11T02:50:06.212Z,32.93
2019-05-11T02:52:35.392Z,24.50
2019-05-11T02:55:04.480Z,32.97
2019-05-11T02:57:32.947Z,33.10
2019-05-11T03:00:01.428Z,35.90
2019-05-11T03:02:29.961Z,34.40
2019-05-11T03:04:58.414Z,35.73
2019-05-11T03:07:26.874Z,37.00
2019-05-11T03:09:55.435Z,37.60
2019-05-11T03:12:23.888Z,28.10
2019-05-11T03:14:52.375Z,34.33
2019-05-11T03:17:22.490Z,51.03
2019-05-11T03:19:51.016Z,29.63
2019-05-11T03:22:21.200Z,26.90
2019-05-11T03:24:49.743Z,36.60
2019-05-11T03:27:18.398Z,27.27
2019-05-11T03:29:46.924Z,33.37
2019-05-11T03:32:15.484Z,35.83
2019-05-11T03:34:44.014Z,37.67
2019-05-11T03:37:12.606Z,40.17
2019-05-11T03:39:41.052Z,36.60
2019-05-11T03:42:14.848Z,44.43
2019-05-11T03:44:39.867Z,32.10
2019-05-11T03:47:08.321Z,33.40
2019-05-11T03:49:36.828Z,31.13
2019-05-11T03:52:05.289Z,32.17
2019-05-11T03:54:35.132Z,34.67
2019-05-11T03:57:05.342Z,31.60
2019-05-11T03:59:33.807Z,35.07
2019-05-11T04:02:02.285Z,25.43
2019-05-11T04:04:30.813Z,31.33
2019-05-11T04:06:59.370Z,30.33
2019-05-11T04:09:27.837Z,27.80
2019-05-11T04:11:56.370Z,25.93
2019-05-11T04:14:24.915Z,22.40
2019-05-11T04:16:53.406Z,21.87
2019-05-11T04:19:21.977Z,21.70
2019-05-11T04:21:50.444Z,22.80
2019-05-11T04:24:18.994Z,24.30
2019-05-11T04:26:47.461Z,33.37
2019-05-11T04:29:16.003Z,28.90
2019-05-11T04:31:44.528Z,32.30
2019-05-11T04:34:13.115Z,23.93
2019-05-11T04:36:41.559Z,26.47
2019-05-11T04:39:10.070Z,25.93
2019-05-11T04:41:38.556Z,31.37
2019-05-11T04:44:07.098Z,25.80
2019-05-11T04:46:37.266Z,24.20
2019-05-11T04:49:05.844Z,20.90
2019-05-11T04:51:34.308Z,24.30
2019-05-11T04:54:02.850Z,22.80
2019-05-11T04:56:31.399Z,29.03
2019-05-11T04:58:59.933Z,22.47
2019-05-11T05:01:28.386Z,20.63
2019-05-11T05:04:12.238Z,23.17
2019-05-11T05:06:27.034Z,24.00
2019-05-11T05:08:58.130Z,22.40
2019-05-11T05:11:30.603Z,19.50
2019-05-11T05:13:55.958Z,18.97
2019-05-11T05:16:24.484Z,19.03
2019-05-11T05:18:54.064Z,28.50
2019-05-11T05:21:22.639Z,27.10
2019-05-11T05:23:51.125Z,20.63
2019-05-11T05:26:19.607Z,22.27
2019-05-11T05:28:48.156Z,23.57
2019-05-11T05:31:16.611Z,22.37
2019-05-11T14:56:54.240Z,4.50
2019-05-11T14:59:22.774Z,5.25
2019-05-11T15:01:51.246Z,5.30
2019-05-11T15:04:19.839Z,5.15
2019-05-11T15:06:48.989Z,5.65
2019-05-11T15:09:18.303Z,5.10
2019-05-11T15:11:48.057Z,4.90
2019-05-11T15:14:19.748Z,5.70
2019-05-11T15:16:48.720Z,5.20
2019-05-11T15:19:18.516Z,6.00
2019-05-11T15:21:47.619Z,6.70
2019-05-11T15:24:18.285Z,5.10
2019-05-11T15:26:48.432Z,6.40
2019-05-11T15:29:18.447Z,5.80
2019-05-11T15:31:48.606Z,6.10
2019-05-11T15:34:18.474Z,7.43
2019-05-11T15:36:48.972Z,6.95
2019-05-11T15:39:18.378Z,7.67
2019-05-11T15:41:48.033Z,7.17
2019-05-11T15:44:18.338Z,7.70
2019-05-11T15:46:48.005Z,6.43
2019-05-11T15:49:17.966Z,5.90
2019-05-11T15:51:48.875Z,6.00
2019-05-11T15:54:18.561Z,5.45
2019-05-11T15:56:47.298Z,5.83
2019-05-11T15:59:15.761Z,6.00
2019-05-11T16:01:44.351Z,8.73
2019-05-11T16:04:12.824Z,6.95
2019-05-11T16:06:41.305Z,6.60
2019-05-11T16:09:09.835Z,7.10
2019-05-11T16:11:38.994Z,8.80
2019-05-11T16:14:08.676Z,8.20
2019-05-11T16:16:38.975Z,8.93
2019-05-11T16:19:14.815Z,7.20
2019-05-11T16:21:39.794Z,6.50
2019-05-11T16:24:10.278Z,7.27
2019-05-11T16:26:38.859Z,7.50
2019-05-11T16:29:11.027Z,7.60
2019-05-11T16:31:38.037Z,6.70
2019-05-11T16:34:08.004Z,8.27
2019-05-11T16:36:38.893Z,9.83
2019-05-11T16:39:10.509Z,7.10
2019-05-11T16:41:38.882Z,6.77
2019-05-11T16:44:07.902Z,6.83
2019-05-11T16:46:38.954Z,7.70
2019-05-11T16:49:10.767Z,8.17
2019-05-11T16:51:39.529Z,8.20
2019-05-11T16:54:08.243Z,8.60
2019-05-11T16:56:38.495Z,8.73
2019-05-11T16:59:08.682Z,7.50
2019-05-11T17:01:37.883Z,10.23
2019-05-11T17:04:06.945Z,8.17
2019-05-11T17:06:38.521Z,7.87
2019-05-11T17:09:08.892Z,12.63
2019-05-11T17:11:38.443Z,9.33
2019-05-11T17:14:08.253Z,8.33
2019-05-11T17:16:38.712Z,9.27
2019-05-11T17:19:08.149Z,8.60
2019-05-11T17:21:38.309Z,8.90
2019-05-11T17:24:07.046Z,9.40
2019-05-11T17:26:35.530Z,8.60
2019-05-11T17:29:04.064Z,9.67
2019-05-11T17:31:32.676Z,10.30
2019-05-11T17:34:01.146Z,14.30
2019-05-11T17:36:29.651Z,12.57
2019-05-11T17:38:58.343Z,14.57
2019-05-11T17:41:27.927Z,11.90
2019-05-11T17:43:58.405Z,14.13
2019-05-11T17:46:27.907Z,21.63
2019-05-11T17:48:56.564Z,13.17
2019-05-11T17:51:25.309Z,15.43
2019-05-11T17:53:54.110Z,24.47
2019-05-11T17:56:22.808Z,20.70
2019-05-11T17:58:51.370Z,19.57
2019-05-11T18:01:19.895Z,23.40
2019-05-11T18:03:48.515Z,24.47
2019-05-11T18:06:18.411Z,23.57
2019-05-11T18:08:47.831Z,26.50
2019-05-11T18:11:18.536Z,24.03
2019-05-11T18:13:48.254Z,23.17
2019-05-11T18:16:21.196Z,26.57
2019-05-11T18:18:49.744Z,26.80
2019-05-11T18:21:19.482Z,27.60
2019-05-11T18:23:48.173Z,27.70
2019-05-11T18:26:18.134Z,28.45
2019-05-11T18:28:48.253Z,29.97
2019-05-11T18:31:18.106Z,26.45
2019-05-11T18:33:48.703Z,24.20
2019-05-11T18:36:18.281Z,25.43
2019-05-11T18:38:48.685Z,23.90
2019-05-11T18:41:17.786Z,29.23
2019-05-11T18:43:48.379Z,27.73
2019-05-11T18:46:16.693Z,30.50
2019-05-11T18:48:46.028Z,28.50
2019-05-11T18:51:14.685Z,29.83
2019-05-11T18:53:43.273Z,28.70
2019-05-11T18:56:11.921Z,31.83
2019-05-11T18:58:40.497Z,29.60
2019-05-11T19:01:09.781Z,32.03
2019-05-11T19:06:08.913Z,28.80
2019-05-11T19:08:39.197Z,29.90
2019-05-11T19:11:09.207Z,30.67
2019-05-11T19:13:38.683Z,26.90
2019-05-11T19:16:08.604Z,26.90
2019-05-11T19:18:38.748Z,32.20
2019-05-11T19:21:09.139Z,33.50
2019-05-11T19:23:39.929Z,32.17
2019-05-11T19:26:08.496Z,37.10
2019-05-11T19:28:38.501Z,31.87
2019-05-11T19:31:08.362Z,28.10
2019-05-11T19:33:38.193Z,31.13
2019-05-11T19:36:07.925Z,31.37
2019-05-11T19:38:38.357Z,31.73
2019-05-11T19:41:08.038Z,28.40
2019-05-11T19:43:39.252Z,28.75
2019-05-11T19:46:10.137Z,20.07
2019-05-11T19:48:39.732Z,22.93
2019-05-11T19:51:11.790Z,19.85
2019-05-11T19:53:38.800Z,12.00
2019-05-11T19:56:11.951Z,10.87
2019-05-11T19:58:42.438Z,14.10
2019-05-11T20:01:21.023Z,15.10
2019-05-11T20:06:13.784Z,9.83
2019-05-11T20:08:53.109Z,9.03
2019-05-11T20:11:24.207Z,7.47
2019-05-11T20:13:58.805Z,9.27
2019-05-11T20:16:26.752Z,9.23
2019-05-11T20:18:57.803Z,7.83
2019-05-11T20:21:28.846Z,9.07
2019-05-11T20:23:57.783Z,9.23
2019-05-11T20:28:58.627Z,6.30
2019-05-11T20:31:27.739Z,5.73
2019-05-11T20:33:56.510Z,6.70
2019-05-11T20:36:25.192Z,4.60
2019-05-11T20:41:21.613Z,2.90
2019-05-11T20:43:51.372Z,2.17
2019-05-11T20:46:20.068Z,2.13
2019-05-11T20:48:48.626Z,1.87
2019-05-11T20:51:32.818Z,2.53
2019-05-11T20:53:48.940Z,2.77
2019-05-11T20:56:19.328Z,3.13
2019-05-11T20:58:59.305Z,3.85
2019-05-11T21:01:28.761Z,2.95
2019-05-11T21:03:58.449Z,3.95
2019-05-11T21:06:29.525Z,4.40
2019-05-11T21:08:59.127Z,5.07
2019-05-11T21:11:27.761Z,4.70
2019-05-11T21:13:56.274Z,4.80
2019-05-11T21:16:24.936Z,3.90
2019-05-11T21:18:53.478Z,5.10
2019-05-11T21:21:22.017Z,5.03
2019-05-11T21:23:50.528Z,5.73
2019-05-11T21:26:19.067Z,5.70
2019-05-11T21:28:48.673Z,5.63
2019-05-11T21:31:19.042Z,5.93
2019-05-11T21:33:47.575Z,6.27
2019-05-11T21:36:18.035Z,7.17
2019-05-11T21:38:48.233Z,15.03
2019-05-11T21:41:16.504Z,8.23
2019-05-11T21:43:45.519Z,8.87
2019-05-11T21:46:14.133Z,6.13
2019-05-11T21:48:42.753Z,5.27
2019-05-11T21:51:11.269Z,6.00
2019-05-11T21:53:39.733Z,4.67
2019-05-11T21:56:08.378Z,2.97
2019-05-11T21:58:37.796Z,5.10
2019-05-11T22:01:06.935Z,5.33
2019-05-11T22:03:35.622Z,5.60
2019-05-11T22:06:04.681Z,5.80
2019-05-11T22:08:33.309Z,8.03
2019-05-11T22:11:02.141Z,10.07
2019-05-11T22:13:30.693Z,10.10
2019-05-11T22:15:59.307Z,8.77
2019-05-11T22:18:31.235Z,10.33
2019-05-11T22:20:58.607Z,9.77
2019-05-11T22:23:28.188Z,5.80
2019-05-11T22:25:58.682Z,7.60
2019-05-11T22:28:28.461Z,6.70
2019-05-11T22:30:57.310Z,6.20
2019-05-11T22:33:28.218Z,8.30
2019-05-11T22:35:58.567Z,8.57
2019-05-11T22:38:30.041Z,10.30
2019-05-11T22:40:58.292Z,10.90
2019-05-11T22:43:28.538Z,9.73
2019-05-11T22:45:58.180Z,12.13
2019-05-11T22:48:26.890Z,6.67
2019-05-11T22:50:55.409Z,9.80
2019-05-11T22:53:23.862Z,17.03
2019-05-11T22:55:52.366Z,13.87
2019-05-11T22:58:20.994Z,15.97
2019-05-11T23:00:49.580Z,9.53
2019-05-11T23:03:19.175Z,12.00
2019-05-11T23:05:48.499Z,15.73
2019-05-11T23:08:18.159Z,14.60
2019-05-11T23:10:48.573Z,16.90
2019-05-11T23:15:47.766Z,15.67
2019-05-11T23:18:18.268Z,15.03
2019-05-11T23:20:47.890Z,7.45
2019-05-11T23:25:46.389Z,14.80
2019-05-11T23:28:14.879Z,12.70
2019-05-11T23:30:43.477Z,18.40
2019-05-11T23:33:11.990Z,18.73
2019-05-11T23:35:40.502Z,16.20
2019-05-11T23:38:09.082Z,17.20
2019-05-11T23:40:38.153Z,18.87
2019-05-11T23:43:08.773Z,18.80
2019-05-11T23:45:38.210Z,19.70
2019-05-11T23:48:07.129Z,18.07
2019-05-11T23:50:38.362Z,15.10
2019-05-11T23:53:09.684Z,17.07
2019-05-11T23:55:37.988Z,19.25
2019-05-11T23:58:08.177Z,21.70
